sensor_id;sensor_type;location;lat;lon;timestamp;P1;durP1;ratioP1;P2;durP2;ratioP2
1218;SDS011;599;51.494;6.670;2022-07-11T00:02:16;5.25;;;3.95;;
1218;SDS011;599;51.494;6.670;2022-07-11T00:04:42;13.32;;;4.28;;
1218;SDS011;599;51.494;6.670;2022-07-11T00:07:10;6.97;;;3.90;;
1218;SDS011;599;51.494;6.670;2022-07-11T00:09:36;6.00;;;3.92;;
1218;SDS011;599;51.494;6.670;2022-07-11T00:12:03;7.03;;;3.70;;
1218;SDS011;599;51.494;6.670;2022-07-11T00:14:31;4.85;;;3.50;;
1218;SDS011;599;51.494;6.670;2022-07-11T00:16:58;3.83;;;2.95;;
1218;SDS011;599;51.494;6.670;2022-07-11T00:19:24;6.47;;;4.33;;
1218;SDS011;599;51.494;6.670;2022-07-11T00:21:51;5.15;;;3.55;;
1218;SDS011;599;51.494;6.670;2022-07-11T00:24:18;5.43;;;3.90;;
1218;SDS011;599;51.494;6.670;2022-07-11T00:26:47;11.25;;;3.90;;
1218;SDS011;599;51.494;6.670;2022-07-11T00:29:15;8.23;;;4.30;;
1218;SDS011;599;51.494;6.670;2022-07-11T00:31:42;5.85;;;3.80;;
1218;SDS011;599;51.494;6.670;2022-07-11T00:34:08;4.95;;;3.42;;
1218;SDS011;599;51.494;6.670;2022-07-11T00:36:35;6.13;;;2.85;;
1218;SDS011;599;51.494;6.670;2022-07-11T00:39:02;6.60;;;3.13;;
1218;SDS011;599;51.494;6.670;2022-07-11T00:41:29;6.20;;;3.50;;
1218;SDS011;599;51.494;6.670;2022-07-11T00:43:57;8.55;;;3.55;;
1218;SDS011;599;51.494;6.670;2022-07-11T00:46:26;5.20;;;3.60;;
1218;SDS011;599;51.494;6.670;2022-07-11T00:48:53;6.53;;;3.20;;
1218;SDS011;599;51.494;6.670;2022-07-11T00:51:21;6.63;;;3.40;;
1218;SDS011;599;51.494;6.670;2022-07-11T00:53:52;3.60;;;3.03;;
1218;SDS011;599;51.494;6.670;2022-07-11T00:56:22;11.57;;;4.45;;
1218;SDS011;599;51.494;6.670;2022-07-11T00:58:52;3.90;;;3.50;;
1218;SDS011;599;51.494;6.670;2022-07-11T01:01:22;4.45;;;3.20;;
1218;SDS011;599;51.494;6.670;2022-07-11T01:03:49;5.60;;;3.22;;
1218;SDS011;599;51.494;6.670;2022-07-11T01:06:16;5.78;;;3.63;;
1218;SDS011;599;51.494;6.670;2022-07-11T01:08:42;7.03;;;4.35;;
1218;SDS011;599;51.494;6.670;2022-07-11T01:11:10;6.00;;;3.15;;
1218;SDS011;599;51.494;6.670;2022-07-11T01:13:40;5.65;;;3.35;;
1218;SDS011;599;51.494;6.670;2022-07-11T01:18:38;9.30;;;4.07;;
1218;SDS011;599;51.494;6.670;2022-07-11T01:21:19;5.47;;;3.88;;
1218;SDS011;599;51.494;6.670;2022-07-11T01:23:48;4.68;;;3.60;;
1218;SDS011;599;51.494;6.670;2022-07-11T01:26:16;4.45;;;3.80;;
1218;SDS011;599;51.494;6.670;2022-07-11T01:28:44;8.25;;;4.80;;
1218;SDS011;599;51.494;6.670;2022-07-11T01:31:10;10.30;;;4.63;;
1218;SDS011;599;51.494;6.670;2022-07-11T01:33:37;7.57;;;3.80;;
1218;SDS011;599;51.494;6.670;2022-07-11T01:36:04;3.97;;;3.58;;
1218;SDS011;599;51.494;6.670;2022-07-11T01:38:30;8.02;;;3.75;;
1218;SDS011;599;51.494;6.670;2022-07-11T01:40:56;4.23;;;3.83;;
1218;SDS011;599;51.494;6.670;2022-07-11T01:43:22;7.47;;;3.23;;
1218;SDS011;599;51.494;6.670;2022-07-11T01:45:52;4.80;;;3.75;;
1218;SDS011;599;51.494;6.670;2022-07-11T01:48:19;13.13;;;3.80;;
1218;SDS011;599;51.494;6.670;2022-07-11T01:50:46;6.88;;;3.95;;
1218;SDS011;599;51.494;6.670;2022-07-11T01:53:13;5.13;;;3.42;;
1218;SDS011;599;51.494;6.670;2022-07-11T01:55:39;7.20;;;3.22;;
1218;SDS011;599;51.494;6.670;2022-07-11T01:58:05;7.30;;;3.78;;
1218;SDS011;599;51.494;6.670;2022-07-11T02:00:31;11.27;;;4.13;;
1218;SDS011;599;51.494;6.670;2022-07-11T02:02:57;8.10;;;3.13;;
1218;SDS011;599;51.494;6.670;2022-07-11T02:05:23;6.63;;;3.30;;
1218;SDS011;599;51.494;6.670;2022-07-11T02:07:49;4.45;;;3.40;;
1218;SDS011;599;51.494;6.670;2022-07-11T02:10:34;6.97;;;3.35;;
1218;SDS011;599;51.494;6.670;2022-07-11T02:13:00;10.70;;;3.70;;
1218;SDS011;599;51.494;6.670;2022-07-11T02:15:26;7.40;;;3.85;;
1218;SDS011;599;51.494;6.670;2022-07-11T02:17:53;4.60;;;3.30;;
1218;SDS011;599;51.494;6.670;2022-07-11T02:20:19;7.75;;;3.63;;
1218;SDS011;599;51.494;6.670;2022-07-11T02:22:46;6.18;;;2.90;;
1218;SDS011;599;51.494;6.670;2022-07-11T02:25:13;6.27;;;3.47;;
1218;SDS011;599;51.494;6.670;2022-07-11T02:27:40;3.90;;;3.40;;
1218;SDS011;599;51.494;6.670;2022-07-11T02:30:06;6.90;;;3.42;;
1218;SDS011;599;51.494;6.670;2022-07-11T02:32:33;12.48;;;3.80;;
1218;SDS011;599;51.494;6.670;2022-07-11T02:34:59;9.00;;;4.20;;
1218;SDS011;599;51.494;6.670;2022-07-11T02:37:25;7.47;;;4.40;;
1218;SDS011;599;51.494;6.670;2022-07-11T02:39:51;6.50;;;3.70;;
1218;SDS011;599;51.494;6.670;2022-07-11T02:42:17;11.10;;;4.80;;
1218;SDS011;599;51.494;6.670;2022-07-11T02:44:46;5.53;;;3.25;;
1218;SDS011;599;51.494;6.670;2022-07-11T02:47:12;7.07;;;3.80;;
1218;SDS011;599;51.494;6.670;2022-07-11T02:49:41;6.63;;;3.05;;
1218;SDS011;599;51.494;6.670;2022-07-11T02:52:07;7.70;;;3.33;;
1218;SDS011;599;51.494;6.670;2022-07-11T02:54:33;5.47;;;3.08;;
1218;SDS011;599;51.494;6.670;2022-07-11T02:56:59;3.00;;;2.35;;
1218;SDS011;599;51.494;6.670;2022-07-11T02:59:26;4.68;;;2.42;;
1218;SDS011;599;51.494;6.670;2022-07-11T03:01:52;3.65;;;2.17;;
1218;SDS011;599;51.494;6.670;2022-07-11T03:04:19;3.50;;;2.07;;
1218;SDS011;599;51.494;6.670;2022-07-11T03:06:45;3.65;;;2.00;;
1218;SDS011;599;51.494;6.670;2022-07-11T03:09:11;6.93;;;2.70;;
1218;SDS011;599;51.494;6.670;2022-07-11T03:11:37;3.47;;;2.00;;
1218;SDS011;599;51.494;6.670;2022-07-11T03:14:03;4.87;;;1.73;;
1218;SDS011;599;51.494;6.670;2022-07-11T03:16:29;4.47;;;1.80;;
1218;SDS011;599;51.494;6.670;2022-07-11T03:18:56;3.17;;;1.48;;
1218;SDS011;599;51.494;6.670;2022-07-11T03:21:23;2.00;;;1.30;;
1218;SDS011;599;51.494;6.670;2022-07-11T03:23:50;2.17;;;1.08;;
1218;SDS011;599;51.494;6.670;2022-07-11T03:26:16;3.57;;;1.33;;
1218;SDS011;599;51.494;6.670;2022-07-11T03:28:42;1.95;;;1.20;;
1218;SDS011;599;51.494;6.670;2022-07-11T03:31:09;1.42;;;1.00;;
1218;SDS011;599;51.494;6.670;2022-07-11T03:33:36;2.33;;;0.90;;
1218;SDS011;599;51.494;6.670;2022-07-11T03:36:02;1.20;;;0.70;;
1218;SDS011;599;51.494;6.670;2022-07-11T03:38:28;1.30;;;0.90;;
1218;SDS011;599;51.494;6.670;2022-07-11T03:40:55;1.85;;;0.70;;
1218;SDS011;599;51.494;6.670;2022-07-11T03:43:21;1.23;;;0.60;;
1218;SDS011;599;51.494;6.670;2022-07-11T03:45:47;1.88;;;0.70;;
1218;SDS011;599;51.494;6.670;2022-07-11T03:48:13;1.37;;;0.77;;
1218;SDS011;599;51.494;6.670;2022-07-11T03:50:39;0.90;;;0.40;;
1218;SDS011;599;51.494;6.670;2022-07-11T03:53:05;1.53;;;0.90;;
1218;SDS011;599;51.494;6.670;2022-07-11T03:55:31;1.30;;;0.90;;
1218;SDS011;599;51.494;6.670;2022-07-11T03:57:58;1.00;;;0.70;;
1218;SDS011;599;51.494;6.670;2022-07-11T04:00:24;1.73;;;0.70;;
1218;SDS011;599;51.494;6.670;2022-07-11T04:02:50;1.70;;;0.90;;
1218;SDS011;599;51.494;6.670;2022-07-11T04:05:16;1.70;;;0.77;;
1218;SDS011;599;51.494;6.670;2022-07-11T04:07:42;1.43;;;1.00;;
1218;SDS011;599;51.494;6.670;2022-07-11T04:10:08;2.03;;;0.93;;
1218;SDS011;599;51.494;6.670;2022-07-11T04:12:34;4.20;;;1.20;;
1218;SDS011;599;51.494;6.670;2022-07-11T04:15:00;2.20;;;1.30;;
1218;SDS011;599;51.494;6.670;2022-07-11T04:17:27;1.43;;;0.73;;
1218;SDS011;599;51.494;6.670;2022-07-11T04:19:53;1.15;;;0.77;;
1218;SDS011;599;51.494;6.670;2022-07-11T04:22:19;1.57;;;0.93;;
1218;SDS011;599;51.494;6.670;2022-07-11T04:24:45;1.20;;;1.00;;
1218;SDS011;599;51.494;6.670;2022-07-11T04:27:11;1.57;;;1.13;;
1218;SDS011;599;51.494;6.670;2022-07-11T04:29:37;3.33;;;1.10;;
1218;SDS011;599;51.494;6.670;2022-07-11T04:32:03;4.10;;;1.10;;
1218;SDS011;599;51.494;6.670;2022-07-11T04:34:29;1.30;;;0.90;;
1218;SDS011;599;51.494;6.670;2022-07-11T04:36:55;2.47;;;0.93;;
1218;SDS011;599;51.494;6.670;2022-07-11T04:39:20;1.20;;;0.60;;
1218;SDS011;599;51.494;6.670;2022-07-11T04:41:46;2.43;;;0.70;;
1218;SDS011;599;51.494;6.670;2022-07-11T04:44:12;2.60;;;1.00;;
1218;SDS011;599;51.494;6.670;2022-07-11T04:46:38;1.40;;;1.07;;
1218;SDS011;599;51.494;6.670;2022-07-11T04:49:04;5.53;;;1.43;;
1218;SDS011;599;51.494;6.670;2022-07-11T04:51:30;2.03;;;1.30;;
1218;SDS011;599;51.494;6.670;2022-07-11T04:53:56;1.93;;;1.60;;
1218;SDS011;599;51.494;6.670;2022-07-11T04:56:21;11.53;;;2.30;;
1218;SDS011;599;51.494;6.670;2022-07-11T04:58:47;3.00;;;1.70;;
1218;SDS011;599;51.494;6.670;2022-07-11T05:01:13;3.90;;;1.97;;
1218;SDS011;599;51.494;6.670;2022-07-11T05:03:39;9.20;;;2.13;;
1218;SDS011;599;51.494;6.670;2022-07-11T05:06:05;1.80;;;1.20;;
1218;SDS011;599;51.494;6.670;2022-07-11T05:08:31;3.25;;;1.63;;
1218;SDS011;599;51.494;6.670;2022-07-11T05:11:02;3.33;;;1.73;;
1218;SDS011;599;51.494;6.670;2022-07-11T05:13:29;2.90;;;1.20;;
1218;SDS011;599;51.494;6.670;2022-07-11T05:15:56;2.55;;;1.70;;
1218;SDS011;599;51.494;6.670;2022-07-11T05:18:22;2.53;;;1.85;;
1218;SDS011;599;51.494;6.670;2022-07-11T05:20:48;1.77;;;1.50;;
1218;SDS011;599;51.494;6.670;2022-07-11T05:23:14;2.80;;;1.57;;
1218;SDS011;599;51.494;6.670;2022-07-11T05:25:40;2.38;;;1.70;;
1218;SDS011;599;51.494;6.670;2022-07-11T05:28:07;3.80;;;2.50;;
1218;SDS011;599;51.494;6.670;2022-07-11T05:30:33;5.60;;;1.95;;
1218;SDS011;599;51.494;6.670;2022-07-11T05:32:59;2.42;;;1.40;;
1218;SDS011;599;51.494;6.670;2022-07-11T05:35:25;3.50;;;1.60;;
1218;SDS011;599;51.494;6.670;2022-07-11T05:37:51;2.88;;;1.60;;
1218;SDS011;599;51.494;6.670;2022-07-11T05:40:17;4.50;;;1.75;;
1218;SDS011;599;51.494;6.670;2022-07-11T05:42:43;2.33;;;2.13;;
1218;SDS011;599;51.494;6.670;2022-07-11T05:45:09;3.38;;;1.95;;
1218;SDS011;599;51.494;6.670;2022-07-11T05:47:35;5.83;;;1.57;;
1218;SDS011;599;51.494;6.670;2022-07-11T05:50:02;5.25;;;1.90;;
1218;SDS011;599;51.494;6.670;2022-07-11T05:52:29;4.05;;;1.92;;
1218;SDS011;599;51.494;6.670;2022-07-11T05:54:54;1.77;;;1.07;;
1218;SDS011;599;51.494;6.670;2022-07-11T05:57:21;4.10;;;1.90;;
1218;SDS011;599;51.494;6.670;2022-07-11T05:59:46;4.93;;;1.90;;
1218;SDS011;599;51.494;6.670;2022-07-11T06:02:13;2.03;;;1.50;;
1218;SDS011;599;51.494;6.670;2022-07-11T06:04:39;2.90;;;1.50;;
1218;SDS011;599;51.494;6.670;2022-07-11T06:07:07;3.78;;;1.55;;
1218;SDS011;599;51.494;6.670;2022-07-11T06:09:33;2.20;;;1.65;;
1218;SDS011;599;51.494;6.670;2022-07-11T06:12:00;3.72;;;2.10;;
1218;SDS011;599;51.494;6.670;2022-07-11T06:14:26;2.63;;;2.03;;
1218;SDS011;599;51.494;6.670;2022-07-11T06:16:52;2.07;;;1.73;;
1218;SDS011;599;51.494;6.670;2022-07-11T06:19:17;2.93;;;2.20;;
1218;SDS011;599;51.494;6.670;2022-07-11T06:21:43;4.77;;;1.93;;
1218;SDS011;599;51.494;6.670;2022-07-11T06:24:09;2.50;;;1.70;;
1218;SDS011;599;51.494;6.670;2022-07-11T06:26:35;4.65;;;1.60;;
1218;SDS011;599;51.494;6.670;2022-07-11T06:29:01;5.43;;;2.50;;
1218;SDS011;599;51.494;6.670;2022-07-11T06:31:28;4.18;;;2.20;;
1218;SDS011;599;51.494;6.670;2022-07-11T06:33:53;4.40;;;2.40;;
1218;SDS011;599;51.494;6.670;2022-07-11T06:36:20;4.67;;;2.00;;
1218;SDS011;599;51.494;6.670;2022-07-11T06:38:49;2.53;;;1.90;;
1218;SDS011;599;51.494;6.670;2022-07-11T06:41:16;2.42;;;1.50;;
1218;SDS011;599;51.494;6.670;2022-07-11T06:43:42;2.33;;;1.40;;
1218;SDS011;599;51.494;6.670;2022-07-11T06:46:08;2.07;;;1.20;;
1218;SDS011;599;51.494;6.670;2022-07-11T06:48:35;4.55;;;1.40;;
1218;SDS011;599;51.494;6.670;2022-07-11T06:51:01;1.67;;;1.43;;
1218;SDS011;599;51.494;6.670;2022-07-11T06:53:27;2.17;;;1.40;;
1218;SDS011;599;51.494;6.670;2022-07-11T06:55:52;1.87;;;1.27;;
1218;SDS011;599;51.494;6.670;2022-07-11T06:58:18;1.70;;;1.20;;
1218;SDS011;599;51.494;6.670;2022-07-11T07:00:59;2.75;;;1.15;;
1218;SDS011;599;51.494;6.670;2022-07-11T07:03:31;1.80;;;1.15;;
1218;SDS011;599;51.494;6.670;2022-07-11T07:05:59;1.60;;;1.20;;
1218;SDS011;599;51.494;6.670;2022-07-11T07:08:26;1.50;;;1.20;;
1218;SDS011;599;51.494;6.670;2022-07-11T07:10:54;2.40;;;1.60;;
1218;SDS011;599;51.494;6.670;2022-07-11T07:13:21;1.40;;;0.88;;
1218;SDS011;599;51.494;6.670;2022-07-11T07:15:51;1.83;;;0.90;;
1218;SDS011;599;51.494;6.670;2022-07-11T07:18:18;1.42;;;1.08;;
1218;SDS011;599;51.494;6.670;2022-07-11T07:20:44;1.47;;;1.17;;
1218;SDS011;599;51.494;6.670;2022-07-11T07:23:09;2.83;;;1.50;;
1218;SDS011;599;51.494;6.670;2022-07-11T07:25:35;2.60;;;1.30;;
1218;SDS011;599;51.494;6.670;2022-07-11T07:28:02;1.67;;;1.20;;
1218;SDS011;599;51.494;6.670;2022-07-11T07:30:30;1.55;;;1.10;;
1218;SDS011;599;51.494;6.670;2022-07-11T07:32:57;2.08;;;1.40;;
1218;SDS011;599;51.494;6.670;2022-07-11T07:35:23;3.00;;;1.00;;
1218;SDS011;599;51.494;6.670;2022-07-11T07:37:49;4.80;;;1.57;;
1218;SDS011;599;51.494;6.670;2022-07-11T07:40:15;2.97;;;1.13;;
1218;SDS011;599;51.494;6.670;2022-07-11T07:42:41;1.60;;;1.20;;
1218;SDS011;599;51.494;6.670;2022-07-11T07:45:07;1.60;;;1.10;;
1218;SDS011;599;51.494;6.670;2022-07-11T07:47:33;4.17;;;1.30;;
1218;SDS011;599;51.494;6.670;2022-07-11T07:50:01;2.10;;;1.30;;
1218;SDS011;599;51.494;6.670;2022-07-11T07:55:33;2.37;;;0.87;;
1218;SDS011;599;51.494;6.670;2022-07-11T07:57:59;2.70;;;1.30;;
1218;SDS011;599;51.494;6.670;2022-07-11T08:00:24;2.43;;;0.93;;
1218;SDS011;599;51.494;6.670;2022-07-11T08:03:08;1.80;;;1.03;;
1218;SDS011;599;51.494;6.670;2022-07-11T08:05:34;3.30;;;1.30;;
1218;SDS011;599;51.494;6.670;2022-07-11T08:08:00;2.57;;;1.20;;
1218;SDS011;599;51.494;6.670;2022-07-11T08:10:26;1.60;;;1.17;;
1218;SDS011;599;51.494;6.670;2022-07-11T08:12:52;1.97;;;1.10;;
1218;SDS011;599;51.494;6.670;2022-07-11T08:15:18;2.00;;;1.70;;
1218;SDS011;599;51.494;6.670;2022-07-11T08:17:44;2.73;;;2.20;;
1218;SDS011;599;51.494;6.670;2022-07-11T08:20:09;2.30;;;1.40;;
1218;SDS011;599;51.494;6.670;2022-07-11T08:22:36;2.77;;;2.10;;
1218;SDS011;599;51.494;6.670;2022-07-11T08:25:01;2.60;;;1.83;;
1218;SDS011;599;51.494;6.670;2022-07-11T08:27:27;1.57;;;1.47;;
1218;SDS011;599;51.494;6.670;2022-07-11T08:29:53;2.30;;;1.53;;
1218;SDS011;599;51.494;6.670;2022-07-11T08:32:19;2.67;;;1.60;;
1218;SDS011;599;51.494;6.670;2022-07-11T08:34:45;2.40;;;2.10;;
1218;SDS011;599;51.494;6.670;2022-07-11T08:37:11;2.63;;;2.43;;
1218;SDS011;599;51.494;6.670;2022-07-11T08:39:37;2.30;;;2.10;;
1218;SDS011;599;51.494;6.670;2022-07-11T08:42:03;1.70;;;1.57;;
1218;SDS011;599;51.494;6.670;2022-07-11T08:44:29;2.57;;;1.30;;
1218;SDS011;599;51.494;6.670;2022-07-11T08:46:55;1.47;;;1.10;;
1218;SDS011;599;51.494;6.670;2022-07-11T08:49:22;1.33;;;0.77;;
1218;SDS011;599;51.494;6.670;2022-07-11T08:51:48;1.13;;;0.80;;
1218;SDS011;599;51.494;6.670;2022-07-11T08:54:14;1.40;;;1.00;;
1218;SDS011;599;51.494;6.670;2022-07-11T08:56:41;1.70;;;1.00;;
1218;SDS011;599;51.494;6.670;2022-07-11T08:59:11;2.23;;;1.20;;
1218;SDS011;599;51.494;6.670;2022-07-11T09:01:43;1.50;;;1.23;;
1218;SDS011;599;51.494;6.670;2022-07-11T09:04:11;1.20;;;1.00;;
1218;SDS011;599;51.494;6.670;2022-07-11T09:06:39;2.07;;;1.10;;
1218;SDS011;599;51.494;6.670;2022-07-11T09:09:05;1.30;;;0.80;;
1218;SDS011;599;51.494;6.670;2022-07-11T09:14:21;1.80;;;0.70;;
1218;SDS011;599;51.494;6.670;2022-07-11T09:17:06;2.60;;;0.70;;
1218;SDS011;599;51.494;6.670;2022-07-11T09:19:34;1.43;;;0.87;;
1218;SDS011;599;51.494;6.670;2022-07-11T09:24:54;1.20;;;0.57;;
1218;SDS011;599;51.494;6.670;2022-07-11T09:27:43;1.10;;;0.50;;
1218;SDS011;599;51.494;6.670;2022-07-11T09:30:20;0.90;;;0.40;;
1218;SDS011;599;51.494;6.670;2022-07-11T09:38:07;2.07;;;0.53;;
1218;SDS011;599;51.494;6.670;2022-07-11T09:40:36;1.20;;;0.77;;
1218;SDS011;599;51.494;6.670;2022-07-11T09:43:03;1.07;;;0.63;;
1218;SDS011;599;51.494;6.670;2022-07-11T09:45:31;1.20;;;0.70;;
1218;SDS011;599;51.494;6.670;2022-07-11T09:48:06;1.30;;;0.70;;
1218;SDS011;599;51.494;6.670;2022-07-11T09:50:34;1.10;;;0.63;;
1218;SDS011;599;51.494;6.670;2022-07-11T09:53:11;0.90;;;0.40;;
1218;SDS011;599;51.494;6.670;2022-07-11T09:55:45;1.20;;;0.50;;
1218;SDS011;599;51.494;6.670;2022-07-11T09:58:13;2.07;;;0.60;;
1218;SDS011;599;51.494;6.670;2022-07-11T10:00:40;1.07;;;0.63;;
1218;SDS011;599;51.494;6.670;2022-07-11T10:03:09;1.33;;;0.83;;
1218;SDS011;599;51.494;6.670;2022-07-11T10:05:37;1.10;;;0.40;;
1218;SDS011;599;51.494;6.670;2022-07-11T10:08:04;1.00;;;0.40;;
1218;SDS011;599;51.494;6.670;2022-07-11T10:10:32;1.93;;;0.87;;
1218;SDS011;599;51.494;6.670;2022-07-11T10:12:59;0.90;;;0.40;;
1218;SDS011;599;51.494;6.670;2022-07-11T10:15:31;1.07;;;0.40;;
1218;SDS011;599;51.494;6.670;2022-07-11T10:26:08;1.77;;;0.57;;
1218;SDS011;599;51.494;6.670;2022-07-11T10:29:09;2.40;;;0.70;;
1218;SDS011;599;51.494;6.670;2022-07-11T10:31:42;1.67;;;0.67;;
1218;SDS011;599;51.494;6.670;2022-07-11T10:34:11;2.90;;;0.67;;
1218;SDS011;599;51.494;6.670;2022-07-11T10:36:46;1.53;;;0.63;;
1218;SDS011;599;51.494;6.670;2022-07-11T10:41:46;1.80;;;0.87;;
1218;SDS011;599;51.494;6.670;2022-07-11T10:44:12;2.67;;;0.73;;
1218;SDS011;599;51.494;6.670;2022-07-11T10:46:38;1.20;;;0.50;;
1218;SDS011;599;51.494;6.670;2022-07-11T10:51:54;1.30;;;0.47;;
1218;SDS011;599;51.494;6.670;2022-07-11T10:54:37;2.70;;;0.60;;
1218;SDS011;599;51.494;6.670;2022-07-11T11:00:14;1.10;;;0.47;;
1218;SDS011;599;51.494;6.670;2022-07-11T11:05:45;1.77;;;0.60;;
1218;SDS011;599;51.494;6.670;2022-07-11T11:11:01;3.17;;;0.60;;
1218;SDS011;599;51.494;6.670;2022-07-11T11:13:28;2.07;;;0.67;;
1218;SDS011;599;51.494;6.670;2022-07-11T11:23:31;1.30;;;0.67;;
1218;SDS011;599;51.494;6.670;2022-07-11T11:29:00;1.60;;;0.67;;
1218;SDS011;599;51.494;6.670;2022-07-11T11:31:32;1.20;;;0.70;;
1218;SDS011;599;51.494;6.670;2022-07-11T11:33:59;2.17;;;0.70;;
1218;SDS011;599;51.494;6.670;2022-07-11T11:36:27;1.20;;;0.60;;
1218;SDS011;599;51.494;6.670;2022-07-11T11:38:54;4.53;;;1.17;;
1218;SDS011;599;51.494;6.670;2022-07-11T11:41:30;2.43;;;1.10;;
1218;SDS011;599;51.494;6.670;2022-07-11T11:43:58;2.57;;;1.87;;
1218;SDS011;599;51.494;6.670;2022-07-11T11:46:26;1.87;;;1.10;;
1218;SDS011;599;51.494;6.670;2022-07-11T11:48:54;3.90;;;1.30;;
1218;SDS011;599;51.494;6.670;2022-07-11T11:51:23;2.17;;;1.10;;
1218;SDS011;599;51.494;6.670;2022-07-11T11:53:52;1.57;;;1.03;;
1218;SDS011;599;51.494;6.670;2022-07-11T11:56:24;1.40;;;1.03;;
1218;SDS011;599;51.494;6.670;2022-07-11T11:59:14;2.17;;;1.10;;
1218;SDS011;599;51.494;6.670;2022-07-11T12:01:41;1.87;;;1.40;;
1218;SDS011;599;51.494;6.670;2022-07-11T12:04:16;1.40;;;1.03;;
1218;SDS011;599;51.494;6.670;2022-07-11T12:09:18;1.33;;;0.80;;
1218;SDS011;599;51.494;6.670;2022-07-11T12:12:08;1.30;;;0.63;;
1218;SDS011;599;51.494;6.670;2022-07-11T12:14:53;1.87;;;0.70;;
1218;SDS011;599;51.494;6.670;2022-07-11T12:17:26;1.00;;;0.50;;
1218;SDS011;599;51.494;6.670;2022-07-11T12:19:56;1.00;;;0.50;;
1218;SDS011;599;51.494;6.670;2022-07-11T12:22:25;1.27;;;0.70;;
1218;SDS011;599;51.494;6.670;2022-07-11T12:24:51;3.83;;;0.93;;
1218;SDS011;599;51.494;6.670;2022-07-11T12:27:22;1.00;;;0.50;;
1218;SDS011;599;51.494;6.670;2022-07-11T12:29:51;2.23;;;0.80;;
1218;SDS011;599;51.494;6.670;2022-07-11T12:32:18;1.23;;;0.70;;
1218;SDS011;599;51.494;6.670;2022-07-11T12:34:48;1.80;;;0.60;;
1218;SDS011;599;51.494;6.670;2022-07-11T12:39:50;2.00;;;1.20;;
1218;SDS011;599;51.494;6.670;2022-07-11T12:47:35;2.10;;;1.27;;
1218;SDS011;599;51.494;6.670;2022-07-11T12:50:12;1.30;;;0.80;;
1218;SDS011;599;51.494;6.670;2022-07-11T12:52:52;1.30;;;1.00;;
1218;SDS011;599;51.494;6.670;2022-07-11T12:55:24;2.43;;;1.10;;
1218;SDS011;599;51.494;6.670;2022-07-11T12:58:10;1.80;;;1.60;;
1218;SDS011;599;51.494;6.670;2022-07-11T13:00:42;2.37;;;0.97;;
1218;SDS011;599;51.494;6.670;2022-07-11T13:03:33;1.60;;;1.10;;
1218;SDS011;599;51.494;6.670;2022-07-11T13:06:03;1.37;;;0.80;;
1218;SDS011;599;51.494;6.670;2022-07-11T13:08:31;3.17;;;1.67;;
1218;SDS011;599;51.494;6.670;2022-07-11T13:11:12;3.80;;;3.50;;
1218;SDS011;599;51.494;6.670;2022-07-11T13:13:47;3.13;;;2.77;;
1218;SDS011;599;51.494;6.670;2022-07-11T13:16:17;2.67;;;2.40;;
1218;SDS011;599;51.494;6.670;2022-07-11T13:18:44;2.53;;;2.03;;
1218;SDS011;599;51.494;6.670;2022-07-11T13:21:11;3.70;;;2.30;;
1218;SDS011;599;51.494;6.670;2022-07-11T13:23:37;2.80;;;2.00;;
1218;SDS011;599;51.494;6.670;2022-07-11T13:26:05;2.17;;;1.97;;
1218;SDS011;599;51.494;6.670;2022-07-11T13:28:32;2.03;;;1.63;;
1218;SDS011;599;51.494;6.670;2022-07-11T13:30:58;2.87;;;1.60;;
1218;SDS011;599;51.494;6.670;2022-07-11T13:33:24;3.60;;;1.77;;
1218;SDS011;599;51.494;6.670;2022-07-11T13:35:51;2.93;;;1.70;;
1218;SDS011;599;51.494;6.670;2022-07-11T13:38:18;2.40;;;2.13;;
1218;SDS011;599;51.494;6.670;2022-07-11T13:40:45;2.07;;;1.67;;
1218;SDS011;599;51.494;6.670;2022-07-11T13:43:12;2.10;;;1.47;;
1218;SDS011;599;51.494;6.670;2022-07-11T13:45:39;2.73;;;1.67;;
1218;SDS011;599;51.494;6.670;2022-07-11T13:48:06;2.60;;;1.43;;
1218;SDS011;599;51.494;6.670;2022-07-11T13:50:32;2.30;;;1.77;;
1218;SDS011;599;51.494;6.670;2022-07-11T13:52:58;2.87;;;1.70;;
1218;SDS011;599;51.494;6.670;2022-07-11T13:55:25;2.97;;;1.30;;
1218;SDS011;599;51.494;6.670;2022-07-11T13:57:58;1.63;;;1.30;;
1218;SDS011;599;51.494;6.670;2022-07-11T14:00:26;3.37;;;1.07;;
1218;SDS011;599;51.494;6.670;2022-07-11T14:02:54;2.10;;;1.30;;
1218;SDS011;599;51.494;6.670;2022-07-11T14:05:20;1.50;;;0.93;;
1218;SDS011;599;51.494;6.670;2022-07-11T14:07:46;2.73;;;1.17;;
1218;SDS011;599;51.494;6.670;2022-07-11T14:10:13;1.90;;;1.10;;
1218;SDS011;599;51.494;6.670;2022-07-11T14:12:39;2.70;;;1.50;;
1218;SDS011;599;51.494;6.670;2022-07-11T14:15:06;2.03;;;1.37;;
1218;SDS011;599;51.494;6.670;2022-07-11T14:17:33;2.57;;;0.97;;
1218;SDS011;599;51.494;6.670;2022-07-11T14:20:00;1.50;;;0.90;;
1218;SDS011;599;51.494;6.670;2022-07-11T14:22:26;1.47;;;0.93;;
1218;SDS011;599;51.494;6.670;2022-07-11T14:24:52;2.33;;;0.80;;
1218;SDS011;599;51.494;6.670;2022-07-11T14:27:18;1.50;;;1.10;;
1218;SDS011;599;51.494;6.670;2022-07-11T14:29:44;2.00;;;0.87;;
1218;SDS011;599;51.494;6.670;2022-07-11T14:32:13;2.10;;;0.77;;
1218;SDS011;599;51.494;6.670;2022-07-11T14:34:39;3.50;;;1.03;;
1218;SDS011;599;51.494;6.670;2022-07-11T14:37:05;3.23;;;0.87;;
1218;SDS011;599;51.494;6.670;2022-07-11T14:39:31;1.37;;;0.67;;
1218;SDS011;599;51.494;6.670;2022-07-11T14:41:59;2.40;;;0.50;;
1218;SDS011;599;51.494;6.670;2022-07-11T14:44:25;1.53;;;0.60;;
1218;SDS011;599;51.494;6.670;2022-07-11T14:46:52;1.90;;;0.87;;
1218;SDS011;599;51.494;6.670;2022-07-11T14:49:19;2.13;;;0.80;;
1218;SDS011;599;51.494;6.670;2022-07-11T14:51:44;1.63;;;0.80;;
1218;SDS011;599;51.494;6.670;2022-07-11T14:54:10;2.40;;;0.67;;
1218;SDS011;599;51.494;6.670;2022-07-11T14:56:41;1.73;;;0.60;;
1218;SDS011;599;51.494;6.670;2022-07-11T14:59:06;1.57;;;0.70;;
1218;SDS011;599;51.494;6.670;2022-07-11T15:01:33;2.73;;;1.50;;
1218;SDS011;599;51.494;6.670;2022-07-11T15:03:59;2.00;;;1.00;;
1218;SDS011;599;51.494;6.670;2022-07-11T15:06:28;1.27;;;0.80;;
1218;SDS011;599;51.494;6.670;2022-07-11T15:09:12;1.50;;;1.27;;
1218;SDS011;599;51.494;6.670;2022-07-11T15:11:56;1.57;;;1.20;;
1218;SDS011;599;51.494;6.670;2022-07-11T15:14:41;3.37;;;1.20;;
1218;SDS011;599;51.494;6.670;2022-07-11T15:17:07;1.40;;;0.97;;
1218;SDS011;599;51.494;6.670;2022-07-11T15:19:33;1.90;;;1.00;;
1218;SDS011;599;51.494;6.670;2022-07-11T15:21:59;1.40;;;0.90;;
1218;SDS011;599;51.494;6.670;2022-07-11T15:24:24;3.97;;;0.90;;
1218;SDS011;599;51.494;6.670;2022-07-11T15:26:50;2.03;;;1.27;;
1218;SDS011;599;51.494;6.670;2022-07-11T15:29:17;1.70;;;0.90;;
1218;SDS011;599;51.494;6.670;2022-07-11T15:31:43;1.70;;;1.20;;
1218;SDS011;599;51.494;6.670;2022-07-11T15:34:09;4.60;;;0.87;;
1218;SDS011;599;51.494;6.670;2022-07-11T15:36:35;3.53;;;1.60;;
1218;SDS011;599;51.494;6.670;2022-07-11T15:39:02;3.60;;;1.27;;
1218;SDS011;599;51.494;6.670;2022-07-11T15:41:28;2.27;;;1.10;;
1218;SDS011;599;51.494;6.670;2022-07-11T15:43:54;1.73;;;1.00;;
1218;SDS011;599;51.494;6.670;2022-07-11T15:46:20;1.60;;;1.00;;
1218;SDS011;599;51.494;6.670;2022-07-11T15:48:47;2.10;;;1.20;;
1218;SDS011;599;51.494;6.670;2022-07-11T15:51:14;2.53;;;1.00;;
1218;SDS011;599;51.494;6.670;2022-07-11T15:53:40;1.90;;;1.33;;
1218;SDS011;599;51.494;6.670;2022-07-11T15:56:06;1.80;;;1.30;;
1218;SDS011;599;51.494;6.670;2022-07-11T15:58:32;1.77;;;0.80;;
1218;SDS011;599;51.494;6.670;2022-07-11T16:00:58;2.20;;;1.20;;
1218;SDS011;599;51.494;6.670;2022-07-11T16:03:26;1.60;;;1.00;;
1218;SDS011;599;51.494;6.670;2022-07-11T16:05:54;2.03;;;1.20;;
1218;SDS011;599;51.494;6.670;2022-07-11T16:08:21;1.40;;;1.00;;
1218;SDS011;599;51.494;6.670;2022-07-11T16:10:47;1.40;;;0.90;;
1218;SDS011;599;51.494;6.670;2022-07-11T16:13:14;2.30;;;0.83;;
1218;SDS011;599;51.494;6.670;2022-07-11T16:15:42;4.00;;;1.17;;
1218;SDS011;599;51.494;6.670;2022-07-11T16:18:09;1.60;;;0.93;;
1218;SDS011;599;51.494;6.670;2022-07-11T16:20:37;1.70;;;1.10;;
1218;SDS011;599;51.494;6.670;2022-07-11T16:23:04;2.23;;;1.30;;
1218;SDS011;599;51.494;6.670;2022-07-11T16:25:31;2.47;;;1.40;;
1218;SDS011;599;51.494;6.670;2022-07-11T16:27:57;3.93;;;1.00;;
1218;SDS011;599;51.494;6.670;2022-07-11T16:30:23;1.93;;;1.33;;
1218;SDS011;599;51.494;6.670;2022-07-11T16:33:00;2.13;;;1.23;;
1218;SDS011;599;51.494;6.670;2022-07-11T16:35:27;1.60;;;1.03;;